Time;durP1;ratioP1;P1;durP2;ratioP2;P2;SDS_P1;SDS_P2;PMS_P1;PMS_P2;Temp;Humidity;BMP_temperature;BMP_pressure;BME280_temperature;BME280_humidity;BME280_pressure;Samples;Min_cycle;Max_cycle;Signal;HPM_P1;HPM_P2
2023/05/04 00:00:01;;;;;;;6.83;6.10;;;13.70;72.50;13.60;96960.00;;;;5063889;28;20218;-81
2023/05/04 00:02:29;;;;;;;6.27;5.67;;;13.60;72.50;13.60;96953.00;;;;5079648;28;20299;-81
2023/05/04 00:04:56;;;;;;;6.37;5.83;;;13.60;72.50;13.60;96957.00;;;;5075184;28;20196;-81
2023/05/04 00:07:23;;;;;;;7.60;6.03;;;13.60;72.60;13.60;96950.00;;;;5077575;28;20286;-81
2023/05/04 00:09:51;;;;;;;6.53;5.93;;;13.60;73.40;13.50;96950.00;;;;5081094;28;20253;-81
2023/05/04 00:12:18;;;;;;;8.23;6.40;;;13.50;72.60;13.50;96948.00;;;;5089932;28;20728;-81
2023/05/04 00:14:46;;;;;;;6.83;5.70;;;13.50;72.70;13.50;96950.00;;;;5076804;28;20248;-81
2023/05/04 00:17:15;;;;;;;7.27;6.50;;;13.50;72.80;13.50;96950.00;;;;5072802;28;20247;-81
2023/05/04 00:19:43;;;;;;;7.90;6.70;;;13.50;72.80;13.40;96948.00;;;;5090600;28;20195;-81
2023/05/04 00:22:10;;;;;;;7.27;6.10;;;13.50;72.90;13.40;96945.00;;;;5082012;28;20676;-81
2023/05/04 00:24:38;;;;;;;6.67;6.07;;;13.40;72.90;13.40;96945.00;;;;5087058;28;20283;-81
2023/05/04 00:27:05;;;;;;;7.60;6.87;;;13.40;72.90;13.40;96944.00;;;;5082075;28;20212;-81
2023/05/04 00:29:33;;;;;;;8.07;6.30;;;13.40;73.00;13.40;96944.00;;;;5090824;28;20207;-81
2023/05/04 00:32:01;;;;;;;7.00;6.40;;;13.40;73.10;13.30;96941.00;;;;5087411;28;20278;-81
2023/05/04 00:34:32;;;;;;;8.67;6.87;;;13.40;73.10;13.30;96937.00;;;;5084425;28;20299;-81
2023/05/04 00:37:00;;;;;;;7.07;6.37;;;13.30;73.20;13.30;96934.00;;;;5065587;28;20208;-81
2023/05/04 00:39:28;;;;;;;7.90;7.10;;;13.30;73.20;13.30;96941.00;;;;5091759;28;20195;-81
2023/05/04 00:41:55;;;;;;;7.13;6.43;;;13.30;73.40;13.20;96934.00;;;;5071919;28;20202;-81
2023/05/04 00:44:23;;;;;;;6.83;6.10;;;13.30;73.40;13.20;96931.00;;;;5082308;28;20231;-81
2023/05/04 00:46:52;;;;;;;9.03;6.80;;;13.30;73.50;13.20;96937.00;;;;5086795;28;20223;-81
2023/05/04 00:49:20;;;;;;;7.20;6.50;;;13.20;73.50;13.20;96934.00;;;;5087863;28;20200;-81
2023/05/04 00:51:50;;;;;;;7.60;6.90;;;13.20;73.60;13.20;96935.00;;;;5099456;28;20195;-81
2023/05/04 00:54:18;;;;;;;10.23;7.10;;;13.20;73.70;13.10;96930.00;;;;5085112;28;20454;-81
2023/05/04 00:56:46;;;;;;;6.80;6.20;;;13.20;73.70;13.10;96927.00;;;;5077870;28;20663;-81
2023/05/04 00:59:13;;;;;;;7.60;6.90;;;13.20;73.80;13.10;96934.00;;;;5073191;28;20193;-82
2023/05/04 01:01:41;;;;;;;8.50;6.80;;;13.10;73.70;13.10;96933.00;;;;5077591;28;20204;-81
2023/05/04 01:04:09;;;;;;;7.47;6.77;;;13.10;73.70;13.10;96928.00;;;;5075924;28;20302;-81
2023/05/04 01:06:46;;;;;;;6.80;6.27;;;13.10;73.80;13.10;96934.00;;;;5078439;28;20230;-81
2023/05/04 01:09:26;;;;;;;7.37;6.63;;;13.10;73.80;13.10;96930.00;;;;5069550;28;20214;-81
2023/05/04 01:12:03;;;;;;;7.57;6.70;;;13.10;73.90;13.00;96929.00;;;;5084139;28;20263;-81
2023/05/04 01:14:32;;;;;;;7.00;6.33;;;13.10;73.90;13.00;96931.00;;;;5081873;28;20235;-81
2023/05/04 01:17:05;;;;;;;7.03;6.43;;;13.00;73.80;13.00;96925.00;;;;5089422;28;20207;-81
2023/05/04 01:19:32;;;;;;;8.73;6.87;;;13.00;73.80;13.00;96933.00;;;;5088966;28;20279;-81
2023/05/04 01:22:01;;;;;;;7.00;6.20;;;13.00;73.80;12.90;96929.00;;;;5074219;28;20208;-81
2023/05/04 01:24:30;;;;;;;7.17;6.50;;;13.00;73.80;12.90;96932.00;;;;5094366;28;20218;-81
2023/05/04 01:27:05;;;;;;;6.63;6.03;;;12.90;73.90;12.90;96930.00;;;;5087038;28;20218;-81
2023/05/04 01:29:42;;;;;;;7.27;6.57;;;12.90;73.90;12.90;96926.00;;;;5102271;28;20191;-80
2023/05/04 01:32:14;;;;;;;6.60;6.00;;;12.90;74.00;12.80;96928.00;;;;5089809;28;20271;-81
2023/05/04 01:34:41;;;;;;;6.60;6.00;;;12.80;74.00;12.80;96930.00;;;;5081455;28;20216;-81
2023/05/04 01:37:10;;;;;;;6.60;6.00;;;12.80;74.00;12.80;96929.00;;;;5092180;28;20287;-81
2023/05/04 01:39:38;;;;;;;6.77;6.07;;;12.80;74.10;12.80;96927.00;;;;5082101;28;20274;-81
2023/05/04 01:42:06;;;;;;;7.63;6.17;;;12.80;74.10;12.80;96927.00;;;;5089873;28;20652;-81
2023/05/04 01:44:33;;;;;;;6.60;6.03;;;12.80;74.10;12.70;96926.00;;;;5082196;28;20315;-81
2023/05/04 01:47:02;;;;;;;6.33;5.73;;;12.80;74.20;12.70;96918.00;;;;5087749;28;20222;-81
2023/05/04 01:49:29;;;;;;;6.23;5.63;;;12.80;74.20;12.70;96918.00;;;;5083078;28;20295;-81
2023/05/04 01:51:56;;;;;;;7.07;6.40;;;12.80;74.20;12.70;96912.00;;;;5079119;28;20192;-81
2023/05/04 01:54:25;;;;;;;6.17;5.57;;;12.70;74.20;12.70;96920.00;;;;5078724;28;20216;-81
2023/05/04 01:56:52;;;;;;;6.13;5.53;;;12.70;74.20;12.70;96915.00;;;;5090398;28;20192;-81
2023/05/04 01:59:20;;;;;;;5.83;5.27;;;12.70;74.20;12.70;96913.00;;;;5096000;28;20716;-81
2023/05/04 02:01:47;;;;;;;6.17;5.57;;;12.70;74.20;12.70;96917.00;;;;5079472;28;20286;-81
2023/05/04 02:04:14;;;;;;;5.87;5.37;;;12.70;74.20;12.70;96910.00;;;;5089865;28;20264;-81
2023/05/04 02:06:41;;;;;;;6.37;5.77;;;12.70;74.20;12.70;96912.00;;;;5089807;28;20247;-81
2023/05/04 02:09:09;;;;;;;5.77;5.27;;;12.70;74.20;12.70;96910.00;;;;5094392;28;20223;-81
2023/05/04 02:11:37;;;;;;;6.40;5.80;;;12.60;74.10;12.60;96912.00;;;;5085412;28;20200;-81
2023/05/04 02:14:04;;;;;;;6.27;5.67;;;12.70;74.20;12.60;96914.00;;;;5086992;28;20212;-81
2023/05/04 02:16:31;;;;;;;6.80;5.47;;;12.70;74.20;12.60;96917.00;;;;5087048;28;20203;-80
2023/05/04 02:18:59;;;;;;;6.27;5.67;;;12.70;74.20;12.60;96921.00;;;;5097646;28;20276;-81
2023/05/04 02:21:26;;;;;;;6.17;5.57;;;12.60;74.10;12.60;96921.00;;;;5085418;28;20207;-81
2023/05/04 02:23:53;;;;;;;7.13;5.90;;;12.60;74.10;12.60;96921.00;;;;5089455;28;20242;-81
2023/05/04 02:26:20;;;;;;;6.63;5.73;;;12.60;74.10;12.50;96917.00;;;;5091675;28;20227;-81
2023/05/04 02:28:49;;;;;;;6.03;5.43;;;12.60;74.10;12.50;96915.00;;;;5092659;28;20227;-80
2023/05/04 02:31:16;;;;;;;6.20;5.60;;;12.60;74.00;12.50;96921.00;;;;5083224;28;20732;-81
2023/05/04 02:33:44;;;;;;;6.07;5.57;;;12.50;74.60;12.50;96917.00;;;;5080985;28;20303;-81
2023/05/04 02:36:11;;;;;;;6.80;5.93;;;12.50;73.90;12.50;96921.00;;;;5072588;28;20208;-81
2023/05/04 02:38:40;;;;;;;6.27;5.70;;;12.50;74.00;12.40;96918.00;;;;5085008;28;20191;-81
2023/05/04 02:41:08;;;;;;;5.97;5.47;;;12.50;73.90;12.40;96918.00;;;;5063944;28;20816;-81
2023/05/04 02:43:36;;;;;;;6.13;5.20;;;12.50;73.90;12.40;96922.00;;;;5073671;28;20208;-81
2023/05/04 02:46:04;;;;;;;6.10;5.60;;;12.50;73.90;12.40;96920.00;;;;5077891;28;20196;-81
2023/05/04 02:48:33;;;;;;;6.03;5.53;;;12.50;73.90;12.40;96912.00;;;;5088312;28;20211;-81
2023/05/04 02:51:00;;;;;;;5.50;5.00;;;12.40;73.90;12.30;96918.00;;;;5087988;28;20192;-81
2023/05/04 02:53:27;;;;;;;7.27;5.73;;;12.40;74.60;12.30;96909.00;;;;5092044;28;20223;-81
2023/05/04 02:55:55;;;;;;;5.27;4.77;;;12.40;74.00;12.30;96913.00;;;;5083341;28;20291;-81
2023/05/04 02:58:22;;;;;;;7.27;5.07;;;12.40;74.00;12.30;96915.00;;;;5089165;28;20203;-81
2023/05/04 03:00:54;;;;;;;6.53;5.37;;;12.30;73.90;12.20;96919.00;;;;5070600;28;20706;-81
2023/05/04 03:03:23;;;;;;;5.90;5.27;;;12.30;73.90;12.20;96917.00;;;;5083631;28;20234;-81
2023/05/04 03:05:50;;;;;;;5.53;5.03;;;12.30;74.00;12.20;96914.00;;;;5083737;28;20196;-81
2023/05/04 03:08:17;;;;;;;5.83;5.33;;;12.30;74.00;12.20;96912.00;;;;5081790;28;20231;-81
2023/05/04 03:10:44;;;;;;;5.80;5.20;;;12.30;74.00;12.20;96914.00;;;;5091724;28;20267;-81
2023/05/04 03:13:11;;;;;;;5.23;4.77;;;12.20;73.90;12.10;96910.00;;;;5082537;28;20303;-81
2023/05/04 03:15:39;;;;;;;5.80;5.20;;;12.20;74.00;12.10;96908.00;;;;5080557;28;20260;-81
2023/05/04 03:18:08;;;;;;;6.57;5.23;;;12.20;73.90;12.10;96916.00;;;;5091855;28;20196;-81
2023/05/04 03:20:37;;;;;;;6.50;5.33;;;12.20;74.00;12.10;96904.00;;;;5087990;28;20196;-81
2023/05/04 03:23:04;;;;;;;5.83;5.27;;;12.10;73.90;12.00;96907.00;;;;5080129;28;20220;-81
2023/05/04 03:25:32;;;;;;;6.40;5.13;;;12.10;73.90;12.00;96907.00;;;;5087593;28;20187;-81
2023/05/04 03:27:59;;;;;;;6.57;5.40;;;12.10;73.90;12.00;96910.00;;;;5089480;28;20886;-81
2023/05/04 03:30:27;;;;;;;5.77;5.00;;;12.10;73.90;12.00;96910.00;;;;5085720;28;20684;-81
2023/05/04 03:32:54;;;;;;;6.03;5.43;;;12.10;73.90;11.90;96902.00;;;;5084973;28;20219;-81
2023/05/04 03:35:22;;;;;;;5.17;4.77;;;12.00;73.80;11.90;96897.00;;;;5089530;28;20200;-81
2023/05/04 03:37:50;;;;;;;6.03;4.90;;;12.00;73.90;11.90;96898.00;;;;5106683;28;20234;-81
2023/05/04 03:40:21;;;;;;;6.37;5.77;;;12.00;73.90;11.80;96899.00;;;;5084192;28;20192;-81
2023/05/04 03:42:48;;;;;;;5.30;4.80;;;11.90;73.90;11.80;96896.00;;;;5100444;28;20215;-80
2023/05/04 03:45:16;;;;;;;6.10;5.33;;;11.90;74.10;11.80;96898.00;;;;5102053;28;20215;-81
2023/05/04 03:47:43;;;;;;;7.03;5.57;;;11.90;74.10;11.80;96901.00;;;;5101613;28;20376;-81
2023/05/04 03:50:12;;;;;;;7.10;6.00;;;11.90;74.10;11.80;96894.00;;;;5071994;28;20196;-81
2023/05/04 03:52:39;;;;;;;6.10;5.20;;;11.90;74.00;11.80;96896.00;;;;5090417;28;20223;-81
2023/05/04 03:55:10;;;;;;;5.97;5.47;;;11.80;74.00;11.80;96902.00;;;;5085948;28;20212;-81
2023/05/04 03:57:37;;;;;;;6.27;5.67;;;11.80;74.00;11.70;96899.00;;;;5081224;28;20203;-81
2023/05/04 04:00:06;;;;;;;5.97;5.47;;;11.80;74.00;11.70;96895.00;;;;5084297;28;20209;-81
2023/05/04 04:02:33;;;;;;;6.87;5.87;;;11.80;74.00;11.70;96896.00;;;;5074473;28;20259;-81
2023/05/04 04:05:00;;;;;;;5.63;5.13;;;11.80;74.00;11.70;96885.00;;;;5079136;28;20284;-81
2023/05/04 04:07:27;;;;;;;5.60;5.10;;;11.70;73.90;11.70;96895.00;;;;5095002;28;20278;-81
2023/05/04 04:09:54;;;;;;;6.27;5.63;;;11.70;74.00;11.70;96900.00;;;;5073678;28;20206;-81
2023/05/04 04:12:23;;;;;;;6.30;5.77;;;11.70;74.00;11.60;96883.00;;;;5085733;28;20204;-81
2023/05/04 04:14:51;;;;;;;6.67;5.33;;;11.70;74.00;11.60;96885.00;;;;5082194;28;20274;-81
2023/05/04 04:17:18;;;;;;;5.73;5.30;;;11.70;74.00;11.60;96895.00;;;;5085845;28;20238;-81
2023/05/04 04:19:45;;;;;;;6.07;5.47;;;11.70;74.00;11.60;96894.00;;;;5073657;28;20207;-81
2023/05/04 04:22:12;;;;;;;5.90;5.40;;;11.60;74.10;11.60;96891.00;;;;5077007;28;20264;-80
2023/05/04 04:24:40;;;;;;;5.70;5.17;;;11.60;74.10;11.50;96887.00;;;;5080890;28;20275;-80
2023/05/04 04:27:07;;;;;;;6.10;5.50;;;11.60;74.10;11.50;96888.00;;;;5076781;28;20234;-80
2023/05/04 04:29:35;;;;;;;6.73;5.60;;;11.60;74.30;11.50;96890.00;;;;5073537;28;20281;-80
2023/05/04 04:32:02;;;;;;;6.20;5.20;;;11.60;74.50;11.50;96891.00;;;;5082900;28;20198;-80
2023/05/04 04:34:30;;;;;;;6.83;5.40;;;11.60;74.60;11.50;96890.00;;;;5077636;28;20318;-80
2023/05/04 04:36:58;;;;;;;6.13;5.23;;;11.60;74.80;11.60;96884.00;;;;5071938;28;20200;-80
2023/05/04 04:39:25;;;;;;;6.23;5.40;;;11.60;74.80;11.60;96884.00;;;;5068533;28;21021;-80
2023/05/04 04:41:52;;;;;;;6.97;5.50;;;11.60;75.10;11.70;96882.00;;;;5081343;28;20196;-81
2023/05/04 04:44:20;;;;;;;7.07;5.80;;;11.60;75.00;11.70;96899.00;;;;5085720;28;20214;-81
2023/05/04 04:46:48;;;;;;;5.60;5.10;;;11.60;75.10;11.70;96894.00;;;;5075957;28;20639;-80
2023/05/04 04:49:16;;;;;;;6.10;5.50;;;11.60;75.20;11.70;96900.00;;;;5095360;28;20233;-80
2023/05/04 04:51:44;;;;;;;6.07;5.47;;;11.60;75.20;11.80;96899.00;;;;5079860;28;20695;-80
2023/05/04 04:54:11;;;;;;;6.00;5.40;;;11.70;75.30;11.80;96908.00;;;;5083275;28;20708;-80
2023/05/04 04:56:40;;;;;;;6.10;5.50;;;11.70;75.30;11.90;96909.00;;;;5081163;28;20736;-80
2023/05/04 04:59:08;;;;;;;6.33;5.73;;;11.70;75.40;11.90;96920.00;;;;5086639;28;20188;-81
2023/05/04 05:01:36;;;;;;;6.70;5.80;;;11.80;75.50;11.90;96919.00;;;;5076114;28;20204;-80
2023/05/04 05:04:04;;;;;;;6.83;6.00;;;11.80;75.60;12.00;96925.00;;;;5085912;28;20627;-79
2023/05/04 05:06:31;;;;;;;6.23;5.63;;;11.80;75.70;12.00;96929.00;;;;5076954;28;20228;-80
2023/05/04 05:08:59;;;;;;;5.70;5.20;;;11.90;76.50;12.10;96925.00;;;;5083775;28;20187;-80
2023/05/04 05:11:26;;;;;;;6.77;5.90;;;11.90;75.80;12.10;96933.00;;;;5081791;28;20257;-80
2023/05/04 05:13:54;;;;;;;6.50;5.90;;;12.00;76.00;12.20;96931.00;;;;5082567;28;20775;-81
2023/05/04 05:16:22;;;;;;;6.33;5.73;;;12.00;75.90;12.20;96931.00;;;;5084464;28;20470;-80
2023/05/04 05:18:49;;;;;;;6.10;5.50;;;12.00;75.90;12.30;96939.00;;;;5098301;28;20200;-80
2023/05/04 05:21:18;;;;;;;6.13;5.63;;;12.10;76.10;12.30;96940.00;;;;5081353;28;20275;-81
2023/05/04 05:23:45;;;;;;;5.83;5.23;;;12.10;76.00;12.30;96939.00;;;;5090736;28;20318;-80
2023/05/04 05:26:13;;;;;;;6.23;5.63;;;12.20;76.80;12.40;96940.00;;;;5083936;28;20223;-80
2023/05/04 05:28:40;;;;;;;6.47;5.30;;;12.20;76.00;12.40;96937.00;;;;5086523;28;20299;-80
2023/05/04 05:31:09;;;;;;;6.03;5.37;;;12.20;76.00;12.50;96942.00;;;;5079689;28;20593;-80
2023/05/04 05:33:36;;;;;;;6.47;5.67;;;12.30;76.10;12.50;96932.00;;;;5078077;28;20303;-80
2023/05/04 05:36:04;;;;;;;6.63;5.70;;;12.30;76.10;12.60;96943.00;;;;5079157;28;20203;-81
2023/05/04 05:38:33;;;;;;;6.97;5.27;;;12.40;76.20;12.70;96929.00;;;;5090199;28;20253;-81
2023/05/04 05:41:00;;;;;;;6.13;5.40;;;12.40;76.10;12.80;96936.00;;;;5090758;28;20246;-81
2023/05/04 05:43:28;;;;;;;6.00;5.23;;;12.50;76.10;12.80;96936.00;;;;5089393;28;20306;-82
2023/05/04 05:45:55;;;;;;;5.50;4.93;;;12.60;76.20;12.90;96935.00;;;;5091349;28;20188;-80
2023/05/04 05:48:22;;;;;;;5.40;4.90;;;12.60;76.30;13.00;96932.00;;;;5077318;28;20316;-81
2023/05/04 05:50:49;;;;;;;5.67;5.03;;;12.70;76.40;13.10;96937.00;;;;5096924;28;20194;-81
2023/05/04 05:53:16;;;;;;;5.67;5.13;;;12.80;76.40;13.10;96934.00;;;;5085475;28;20302;-81
2023/05/04 05:55:46;;;;;;;5.73;5.17;;;12.80;76.30;13.20;96934.00;;;;5083519;28;20635;-81
2023/05/04 05:58:14;;;;;;;5.33;4.83;;;12.90;76.40;13.30;96934.00;;;;5075435;28;20203;-80
2023/05/04 06:00:41;;;;;;;5.60;5.03;;;13.00;77.10;13.40;96930.00;;;;5070308;28;20791;-80
2023/05/04 06:03:08;;;;;;;5.43;4.93;;;13.10;76.30;13.40;96933.00;;;;5069817;28;20219;-81
2023/05/04 06:05:36;;;;;;;6.17;4.90;;;13.10;76.30;13.50;96929.00;;;;5069542;28;20263;-80
2023/05/04 06:08:04;;;;;;;6.17;4.67;;;13.20;76.20;13.60;96931.00;;;;5072322;28;20223;-80
2023/05/04 06:10:32;;;;;;;5.93;5.33;;;13.30;76.10;13.60;96929.00;;;;5070268;28;20213;-80
2023/05/04 06:13:01;;;;;;;5.43;4.93;;;13.40;76.00;13.70;96928.00;;;;5071365;28;20253;-81
2023/05/04 06:15:28;;;;;;;6.70;5.43;;;13.40;75.80;13.80;96926.00;;;;5071939;28;20203;-80
2023/05/04 06:17:56;;;;;;;6.00;5.00;;;13.50;76.50;13.90;96920.00;;;;5068671;28;20215;-80
2023/05/04 06:20:23;;;;;;;5.73;5.23;;;13.60;75.80;13.90;96932.00;;;;5071283;28;20812;-80
2023/05/04 06:22:50;;;;;;;6.50;5.10;;;13.70;75.80;14.00;96932.00;;;;5072286;28;20238;-80
2023/05/04 06:25:18;;;;;;;5.03;4.63;;;13.70;75.70;14.10;96930.00;;;;5079145;28;20279;-80
2023/05/04 06:27:47;;;;;;;5.40;4.90;;;13.80;75.60;14.20;96928.00;;;;5075912;28;20227;-81
2023/05/04 06:30:16;;;;;;;5.40;4.90;;;13.90;75.60;14.30;96931.00;;;;5073857;28;20279;-81
2023/05/04 06:32:44;;;;;;;6.23;5.23;;;14.00;75.50;14.40;96935.00;;;;5071252;28;20764;-80
2023/05/04 06:35:12;;;;;;;5.40;4.87;;;14.10;75.50;14.40;96935.00;;;;5075958;28;20268;-80
2023/05/04 06:37:40;;;;;;;6.43;5.53;;;14.10;75.40;14.50;96937.00;;;;5073785;28;20196;-80
2023/05/04 06:40:10;;;;;;;5.43;5.03;;;14.20;75.10;14.60;96934.00;;;;5075664;28;20204;-80
2023/05/04 06:42:38;;;;;;;6.37;5.60;;;14.30;74.90;14.70;96939.00;;;;5077969;28;20192;-80
2023/05/04 06:45:08;;;;;;;5.47;4.97;;;14.40;74.90;14.80;96933.00;;;;5078640;28;20209;-80
2023/05/04 06:47:37;;;;;;;5.93;5.33;;;14.40;74.80;14.90;96934.00;;;;5073844;28;20947;-79
2023/05/04 06:50:09;;;;;;;5.37;4.97;;;14.50;74.60;15.00;96935.00;;;;5073493;28;20658;-80
2023/05/04 06:52:39;;;;;;;6.40;5.77;;;14.60;74.60;15.10;96931.00;;;;5073802;28;20204;-80
2023/05/04 06:55:08;;;;;;;5.37;4.87;;;14.70;74.60;15.20;96929.00;;;;5077487;28;20203;-80
2023/05/04 06:57:35;;;;;;;4.90;4.50;;;14.80;74.30;15.30;96938.00;;;;5076292;28;20227;-81
2023/05/04 07:00:05;;;;;;;6.43;5.57;;;14.90;74.40;15.40;96935.00;;;;5077149;28;20210;-81
2023/05/04 07:02:32;;;;;;;6.43;4.90;;;15.00;74.50;15.50;96931.00;;;;5081535;28;20206;-80
2023/05/04 07:05:01;;;;;;;5.87;5.30;;;15.10;74.40;15.60;96936.00;;;;5077898;28;20549;-80
2023/05/04 07:07:28;;;;;;;5.57;5.07;;;15.20;74.40;15.70;96930.00;;;;5077958;28;20223;-80
2023/05/04 07:09:55;;;;;;;8.13;6.03;;;15.30;74.50;15.80;96937.00;;;;5075502;28;20195;-80
2023/05/04 07:12:23;;;;;;;5.77;5.23;;;15.40;74.30;16.00;96933.00;;;;5087305;28;20252;-80
2023/05/04 07:14:50;;;;;;;5.47;4.97;;;15.50;74.40;16.10;96938.00;;;;5080693;28;20733;-81
2023/05/04 07:17:20;;;;;;;6.93;5.47;;;15.60;74.10;16.30;96942.00;;;;5089541;28;20192;-80
2023/05/04 07:19:51;;;;;;;5.30;4.90;;;15.70;74.00;16.50;96935.00;;;;5089664;28;20253;-80
2023/05/04 07:22:20;;;;;;;5.70;5.10;;;15.90;74.00;16.70;96931.00;;;;5076298;28;20629;-79
2023/05/04 07:24:47;;;;;;;5.50;5.00;;;16.00;73.50;16.80;96931.00;;;;5076006;28;20195;-80
2023/05/04 07:27:15;;;;;;;4.97;4.47;;;16.20;73.50;17.00;96936.00;;;;5077059;28;20658;-80
2023/05/04 07:29:42;;;;;;;5.57;5.10;;;16.30;73.60;17.20;96934.00;;;;5075700;28;20188;-80
2023/05/04 07:32:12;;;;;;;5.33;4.83;;;16.50;73.40;17.40;96930.00;;;;5078342;28;20700;-81
2023/05/04 07:34:39;;;;;;;5.30;4.80;;;16.60;73.10;17.50;96928.00;;;;5088303;28;20633;-81
2023/05/04 07:37:06;;;;;;;5.20;4.70;;;16.80;72.90;17.70;96934.00;;;;5076413;28;20220;-80
2023/05/04 07:39:37;;;;;;;4.70;4.30;;;16.90;72.70;17.90;96930.00;;;;5094360;28;20215;-80
2023/05/04 07:42:06;;;;;;;4.90;4.50;;;17.10;72.20;18.10;96932.00;;;;5080087;28;20207;-81
2023/05/04 07:44:34;;;;;;;5.33;4.83;;;17.30;72.30;18.30;96929.00;;;;5078623;28;20311;-80
2023/05/04 07:47:02;;;;;;;4.90;4.50;;;17.40;72.10;18.40;96934.00;;;;5080146;28;20199;-81
2023/05/04 07:49:29;;;;;;;4.97;4.57;;;17.60;72.00;18.60;96926.00;;;;5091680;28;20223;-81
2023/05/04 07:51:58;;;;;;;4.50;4.10;;;17.80;72.00;18.90;96928.00;;;;5083793;28;20206;-81
2023/05/04 07:54:25;;;;;;;4.97;4.47;;;17.90;71.90;19.10;96925.00;;;;5079568;28;20227;-81
2023/05/04 07:56:53;;;;;;;4.37;4.07;;;18.10;71.60;19.30;96923.00;;;;5079932;28;20199;-80
2023/05/04 07:59:21;;;;;;;3.97;3.70;;;18.30;71.20;19.40;96933.00;;;;5090342;28;20282;-82
2023/05/04 08:01:48;;;;;;;4.60;4.20;;;18.50;70.70;19.60;96941.00;;;;5085279;28;20192;-81
2023/05/04 08:04:15;;;;;;;4.87;4.47;;;18.60;70.20;19.80;96939.00;;;;5080135;28;20696;-81
2023/05/04 08:06:43;;;;;;;4.67;4.27;;;18.80;70.90;20.00;96943.00;;;;5086552;28;20279;-81
2023/05/04 08:09:12;;;;;;;4.33;3.90;;;18.90;70.00;20.20;96937.00;;;;5090604;28;20678;-80
2023/05/04 08:11:40;;;;;;;4.80;4.37;;;19.10;70.00;20.30;96930.00;;;;5071527;28;20203;-81
2023/05/04 08:14:09;;;;;;;4.43;4.13;;;19.30;69.70;20.50;96937.00;;;;5083057;28;20222;-81
2023/05/04 08:16:38;;;;;;;4.80;4.37;;;19.40;69.00;20.70;96935.00;;;;5084544;28;20219;-81
2023/05/04 08:19:08;;;;;;;4.43;4.03;;;19.60;69.30;20.90;96927.00;;;;5082222;28;20201;-81
2023/05/04 08:21:36;;;;;;;4.20;3.90;;;19.70;69.10;21.00;96932.00;;;;5070767;28;20191;-80
2023/05/04 08:24:03;;;;;;;4.40;3.70;;;19.90;68.80;21.20;96931.00;;;;5082060;28;20837;-80
2023/05/04 08:26:31;;;;;;;4.37;3.93;;;20.10;68.00;21.40;96941.00;;;;5087277;28;20704;-81
2023/05/04 08:29:07;;;;;;;4.90;3.80;;;20.20;67.30;21.70;96942.00;;;;5084891;28;20279;-81
2023/05/04 08:31:37;;;;;;;4.90;4.30;;;20.40;67.20;21.90;96946.00;;;;5079302;28;20195;-81
2023/05/04 08:34:04;;;;;;;3.87;3.50;;;20.60;66.50;22.00;96940.00;;;;5074989;28;20268;-81
2023/05/04 08:36:32;;;;;;;4.20;3.90;;;20.80;66.20;22.20;96948.00;;;;5084321;28;20194;-81
2023/05/04 08:39:01;;;;;;;4.10;3.77;;;20.90;65.80;22.40;96940.00;;;;5078483;28;20202;-81
2023/05/04 08:41:29;;;;;;;4.60;4.20;;;21.10;65.40;22.50;96940.00;;;;5079503;28;20204;-81
2023/05/04 08:43:56;;;;;;;3.90;3.60;;;21.20;65.00;22.70;96945.00;;;;5078154;28;20598;-81
2023/05/04 08:46:23;;;;;;;3.87;3.47;;;21.40;65.00;22.90;96944.00;;;;5079758;28;20203;-81
2023/05/04 08:48:52;;;;;;;4.03;3.63;;;21.50;65.70;23.10;96933.00;;;;5075738;28;20267;-80
2023/05/04 08:51:21;;;;;;;4.27;3.87;;;21.70;65.20;23.40;96951.00;;;;5087074;28;20274;-81
2023/05/04 08:53:50;;;;;;;4.20;3.87;;;21.90;64.10;23.60;96946.00;;;;5078772;28;20210;-81
2023/05/04 08:56:19;;;;;;;3.50;3.20;;;22.10;63.80;23.80;96945.00;;;;5079048;28;20231;-80
2023/05/04 08:58:51;;;;;;;3.20;2.90;;;22.30;63.40;24.10;96950.00;;;;5080906;28;20283;-81
2023/05/04 09:01:19;;;;;;;3.70;3.40;;;22.50;62.90;24.30;96943.00;;;;5078416;28;20605;-81
2023/05/04 09:03:48;;;;;;;3.77;3.27;;;22.70;62.60;24.50;96941.00;;;;5063795;28;20211;-83
2023/05/04 09:06:18;;;;;;;3.70;3.40;;;22.90;62.20;24.70;96947.00;;;;5093169;28;20257;-81
2023/05/04 09:08:45;;;;;;;3.97;3.40;;;23.10;61.10;25.00;96947.00;;;;5096186;28;20249;-81
2023/05/04 09:11:12;;;;;;;3.40;3.00;;;23.40;60.90;25.20;96943.00;;;;5089944;28;20210;-81
2023/05/04 09:13:41;;;;;;;4.23;3.10;;;23.60;61.00;25.50;96949.00;;;;5087036;28;20222;-82
2023/05/04 09:16:09;;;;;;;4.30;3.90;;;23.80;60.30;25.90;96949.00;;;;5083290;28;20648;-81
2023/05/04 09:18:39;;;;;;;3.30;2.97;;;24.00;59.80;26.20;96962.00;;;;5095454;28;20641;-81
2023/05/04 09:21:07;;;;;;;3.83;3.50;;;24.30;59.20;26.60;96959.00;;;;5089427;28;20195;-83
2023/05/04 09:23:46;;;;;;;3.40;3.17;;;24.50;59.00;26.90;96958.00;;;;5082553;28;20302;-81
2023/05/04 09:26:13;;;;;;;3.83;3.53;;;24.80;57.90;27.30;96955.00;;;;5092916;28;20248;-81
2023/05/04 09:28:42;;;;;;;3.90;3.57;;;25.00;59.00;27.60;96957.00;;;;5091863;28;20258;-81
2023/05/04 09:31:10;;;;;;;4.13;3.20;;;25.20;58.10;27.90;96958.00;;;;5095458;28;20604;-81
2023/05/04 09:33:38;;;;;;;3.70;3.40;;;25.50;58.10;28.20;96956.00;;;;5095733;28;20222;-82
2023/05/04 09:36:15;;;;;;;3.53;3.23;;;25.80;58.00;28.40;96954.00;;;;5077324;28;20278;-82
2023/05/04 09:38:44;;;;;;;3.50;3.20;;;26.10;55.40;28.60;96947.00;;;;5067934;28;20201;-82
2023/05/04 09:41:12;;;;;;;3.70;2.97;;;26.30;56.20;28.70;96947.00;;;;5090293;28;20195;-83
2023/05/04 09:43:40;;;;;;;3.43;3.03;;;26.50;55.40;28.80;96939.00;;;;5086747;28;20298;-82
2023/05/04 09:46:17;;;;;;;3.10;2.90;;;26.70;55.10;29.00;96941.00;;;;5076785;28;20249;-80
2023/05/04 09:48:52;;;;;;;3.78;3.40;;;27.00;53.90;29.20;96951.00;;;;5074587;28;20226;-81
2023/05/04 09:51:22;;;;;;;3.75;2.90;;;27.20;53.00;29.30;96943.00;;;;5078363;28;20224;-82
2023/05/04 09:53:51;;;;;;;4.00;3.58;;;27.40;54.10;29.50;96950.00;;;;5087451;28;20691;-82
2023/05/04 09:56:40;;;;;;;3.85;3.55;;;27.70;54.30;29.70;96952.00;;;;5077915;28;20210;-82
2023/05/04 09:59:09;;;;;;;3.58;3.33;;;27.90;53.90;29.90;96941.00;;;;5081969;28;20718;-83
2023/05/04 10:01:37;;;;;;;3.88;3.58;;;28.10;54.50;30.00;96940.00;;;;5079243;28;20195;-83
2023/05/04 10:04:06;;;;;;;3.85;3.55;;;28.30;54.40;30.20;96934.00;;;;5081212;28;20220;-83
2023/05/04 10:06:34;;;;;;;4.40;4.00;;;28.50;54.10;30.30;96936.00;;;;5088751;28;20660;-82
2023/05/04 10:09:03;;;;;;;3.75;3.45;;;28.60;53.80;30.40;96935.00;;;;5085352;28;20239;-83
2023/05/04 10:11:32;;;;;;;3.63;3.42;;;28.80;54.20;30.50;96935.00;;;;5089096;28;20218;-83
2023/05/04 10:14:00;;;;;;;4.07;3.78;;;29.00;53.20;30.60;96932.00;;;;5083337;28;20221;-82
2023/05/04 10:16:44;;;;;;;4.15;3.75;;;29.10;53.30;30.70;96930.00;;;;5085399;28;20196;-83
2023/05/04 10:19:38;;;;;;;3.72;3.42;;;29.30;51.70;30.70;96919.00;;;;5083647;28;20189;-83
2023/05/04 10:22:31;;;;;;;3.78;3.47;;;29.40;51.80;30.70;96926.00;;;;5093913;28;20202;-82
2023/05/04 10:25:36;;;;;;;3.85;3.50;;;29.60;51.00;30.70;96925.00;;;;5076165;28;20218;-81
2023/05/04 10:28:22;;;;;;;3.67;3.38;;;29.60;51.00;30.70;96919.00;;;;5077704;28;20187;-82
2023/05/04 10:30:57;;;;;;;4.00;3.15;;;29.70;51.00;30.70;96918.00;;;;5090631;28;20287;-82
2023/05/04 10:33:24;;;;;;;3.47;3.17;;;29.70;51.00;30.60;96929.00;;;;5095233;28;20605;-85
2023/05/04 10:35:52;;;;;;;3.55;3.25;;;29.80;51.60;30.60;96922.00;;;;5089144;28;20196;-83
2023/05/04 10:38:20;;;;;;;3.38;3.05;;;29.80;51.10;30.60;96915.00;;;;5092228;28;20255;-82
2023/05/04 10:40:49;;;;;;;3.72;3.40;;;29.80;50.50;30.40;96918.00;;;;5088262;28;20668;-83
2023/05/04 10:43:23;;;;;;;5.60;2.92;;;29.80;49.80;30.30;96916.00;;;;5091890;28;20216;-83
2023/05/04 10:45:51;;;;;;;3.63;3.20;;;29.80;49.40;30.20;96905.00;;;;5088321;28;20198;-82
2023/05/04 10:48:18;;;;;;;3.28;3.08;;;29.80;49.40;30.00;96908.00;;;;5090479;28;20231;-81
2023/05/04 10:50:48;;;;;;;2.80;2.60;;;29.60;48.70;29.80;96901.00;;;;5086619;28;20200;-82
2023/05/04 10:53:18;;;;;;;2.92;2.72;;;29.50;48.20;29.50;96906.00;;;;5087909;28;20219;-81
2023/05/04 10:55:48;;;;;;;3.17;2.83;;;29.30;47.70;29.30;96893.00;;;;5087264;28;20648;-82
2023/05/04 10:58:27;;;;;;;3.40;2.63;;;29.10;47.70;29.00;96892.00;;;;5085905;28;20648;-81
2023/05/04 11:00:54;;;;;;;2.78;2.58;;;28.90;47.10;28.70;96897.00;;;;5090337;28;20270;-82